Time;durP1;ratioP1;P1;durP2;ratioP2;P2;SDS_P1;SDS_P2;PMS_P1;PMS_P2;Temp;Humidity;BMP_temperature;BMP_pressure;BME280_temperature;BME280_humidity;BME280_pressure;Samples;Min_cycle;Max_cycle;Signal;HPM_P1;HPM_P2
2021/04/27 00:01:27;;;;;;;1.00;0.70;;;;;;;5.41;50.93;98752.56;10332926;28;20574;-76
2021/04/27 00:06:47;;;;;;;1.00;0.70;;;;;;;5.27;51.37;98755.91;10318993;28;20205;-76
2021/04/27 00:12:07;;;;;;;1.20;0.80;;;;;;;5.18;51.52;98749.16;10332848;28;20661;-76
2021/04/27 00:17:26;;;;;;;0.90;0.70;;;;;;;5.17;51.59;98736.72;10332349;28;20601;-75
2021/04/27 00:22:45;;;;;;;0.97;0.60;;;;;;;5.11;52.18;98732.72;10318803;28;20543;-75
2021/04/27 00:28:04;;;;;;;2.53;0.90;;;;;;;5.12;52.06;98737.81;10330772;28;20652;-76
2021/04/27 00:33:23;;;;;;;0.90;0.63;;;;;;;4.96;52.11;98730.97;10318537;28;20266;-76
2021/04/27 00:38:42;;;;;;;1.53;1.27;;;;;;;4.94;52.41;98741.47;10318540;28;20397;-76
2021/04/27 00:44:01;;;;;;;1.00;0.90;;;;;;;4.91;52.29;98732.09;10330815;28;20259;-78
2021/04/27 00:49:20;;;;;;;0.93;0.70;;;;;;;4.84;52.73;98717.63;10317874;28;20329;-77
2021/04/27 00:54:39;;;;;;;1.03;0.60;;;;;;;4.87;52.43;98714.13;10340760;28;20337;-77
2021/04/27 00:59:58;;;;;;;0.90;0.63;;;;;;;4.85;52.60;98709.06;10322635;28;20534;-77
2021/04/27 01:05:21;;;;;;;0.90;0.60;;;;;;;4.81;52.44;98705.50;10340664;28;20189;-78
2021/04/27 01:11:02;;;;;;;8.33;1.40;;;;;;;4.71;53.05;98691.75;10340476;28;20185;-78
2021/04/27 01:16:22;;;;;;;1.10;0.97;;;;;;;4.74;52.96;98701.91;10330858;28;20182;-77
2021/04/27 01:21:42;;;;;;;1.30;1.03;;;;;;;4.76;52.93;98694.16;10338979;28;20220;-77
2021/04/27 01:27:02;;;;;;;1.00;0.80;;;;;;;4.62;53.39;98683.06;10332156;28;20570;-78
2021/04/27 01:32:21;;;;;;;2.00;1.60;;;;;;;4.65;53.26;98671.44;10316629;28;20185;-76
2021/04/27 01:37:41;;;;;;;1.07;0.77;;;;;;;4.51;53.53;98673.97;10320415;28;20185;-77
2021/04/27 01:43:03;;;;;;;7.10;0.70;;;;;;;4.49;53.58;98670.84;10338562;28;20589;-78
2021/04/27 01:48:22;;;;;;;0.90;0.60;;;;;;;4.52;53.91;98661.94;10295602;28;20234;-78
2021/04/27 01:53:45;;;;;;;0.90;0.63;;;;;;;4.37;53.82;98660.16;10298745;28;20249;-77
2021/04/27 01:59:05;;;;;;;0.90;0.60;;;;;;;4.33;54.05;98664.78;10297176;28;20186;-76
2021/04/27 02:04:26;;;;;;;0.90;0.60;;;;;;;4.15;54.64;98661.03;10276138;28;20213;-76
2021/04/27 02:09:46;;;;;;;1.40;0.77;;;;;;;4.09;54.50;98651.59;10278936;28;20606;-76
2021/04/27 02:15:07;;;;;;;0.90;0.63;;;;;;;4.04;54.68;98651.91;10296918;28;20178;-75
2021/04/27 02:20:29;;;;;;;0.90;0.50;;;;;;;4.08;54.72;98647.31;10290238;28;20182;-76
2021/04/27 02:25:49;;;;;;;1.00;0.70;;;;;;;4.02;55.32;98650.72;10297240;28;20201;-76
2021/04/27 02:31:10;;;;;;;1.00;0.50;;;;;;;3.92;55.19;98648.59;10295872;28;20612;-76
2021/04/27 02:36:29;;;;;;;1.00;0.60;;;;;;;3.74;56.14;98644.84;10276123;28;20228;-76
2021/04/27 02:41:49;;;;;;;1.43;0.70;;;;;;;3.67;56.53;98646.66;10278609;28;20174;-76
2021/04/27 02:47:08;;;;;;;0.90;0.60;;;;;;;3.53;57.27;98641.00;10294663;28;20230;-76
2021/04/27 02:52:27;;;;;;;1.13;0.73;;;;;;;3.45;57.25;98631.16;10296484;28;20182;-75
2021/04/27 02:57:46;;;;;;;1.73;1.23;;;;;;;3.36;57.70;98622.47;10277797;28;20621;-76
2021/04/27 03:03:05;;;;;;;1.67;1.57;;;;;;;3.46;57.06;98608.25;10296280;28;20181;-77
2021/04/27 03:08:24;;;;;;;1.00;0.70;;;;;;;3.31;58.19;98606.47;10295345;28;20205;-76
2021/04/27 03:13:43;;;;;;;0.90;0.60;;;;;;;3.33;57.86;98606.88;10293609;28;20178;-75
2021/04/27 03:19:03;;;;;;;10.03;0.70;;;;;;;3.37;57.47;98605.00;10295398;28;20687;-75
2021/04/27 03:24:22;;;;;;;0.90;0.77;;;;;;;3.32;57.69;98602.56;10295210;28;20166;-75
2021/04/27 03:29:41;;;;;;;0.90;0.60;;;;;;;3.32;57.88;98614.25;10293249;28;20656;-76
2021/04/27 03:35:00;;;;;;;1.23;0.80;;;;;;;3.27;58.32;98613.75;10294736;28;20178;-76
2021/04/27 03:40:20;;;;;;;1.20;0.60;;;;;;;3.29;58.15;98609.53;10272695;28;20182;-78
2021/04/27 03:45:39;;;;;;;1.20;1.10;;;;;;;3.29;58.44;98608.75;10292847;28;20266;-77
2021/04/27 03:50:58;;;;;;;1.10;0.80;;;;;;;3.19;59.05;98595.75;10294330;28;20629;-75
2021/04/27 03:56:17;;;;;;;0.90;0.60;;;;;;;3.15;58.65;98603.06;10294059;28;20190;-76
2021/04/27 04:01:36;;;;;;;1.00;0.80;;;;;;;3.15;58.36;98600.34;10292713;28;20178;-76
2021/04/27 04:06:55;;;;;;;0.90;0.60;;;;;;;3.13;59.09;98605.38;10293590;28;20209;-77
2021/04/27 04:12:14;;;;;;;2.77;0.93;;;;;;;3.10;59.11;98602.59;10278779;28;20178;-76
2021/04/27 04:17:33;;;;;;;2.03;1.03;;;;;;;3.12;58.94;98603.81;10277500;28;20590;-76
2021/04/27 04:22:53;;;;;;;0.90;0.53;;;;;;;3.14;58.82;98602.28;10293428;28;20561;-77
2021/04/27 04:28:12;;;;;;;1.00;0.67;;;;;;;3.21;58.84;98604.34;10291258;28;20213;-77
2021/04/27 04:33:31;;;;;;;0.87;0.50;;;;;;;3.28;58.85;98610.66;10272741;28;20213;-76
2021/04/27 04:38:50;;;;;;;1.20;0.90;;;;;;;3.44;58.64;98605.88;10293082;28;20656;-76
2021/04/27 04:44:09;;;;;;;2.90;1.37;;;;;;;3.56;58.96;98602.19;10291539;28;20213;-76
2021/04/27 04:49:28;;;;;;;0.90;0.73;;;;;;;3.66;58.75;98607.00;10292473;28;20202;-76
2021/04/27 04:54:47;;;;;;;0.90;0.57;;;;;;;3.76;58.50;98606.41;10288154;28;20178;-77
2021/04/27 05:00:13;;;;;;;1.03;0.93;;;;;;;3.91;58.44;98602.72;10289487;28;20181;-76
2021/04/27 05:05:32;;;;;;;1.00;0.70;;;;;;;4.11;57.18;98605.75;10292444;28;20537;-75
2021/04/27 05:10:51;;;;;;;1.73;0.97;;;;;;;4.29;56.56;98606.75;10328497;28;20186;-76
2021/04/27 05:16:11;;;;;;;1.00;0.60;;;;;;;4.49;56.42;98596.50;10316059;28;20572;-76
2021/04/27 05:21:30;;;;;;;1.40;1.00;;;;;;;4.71;56.05;98611.97;10332390;28;20177;-76
2021/04/27 05:26:49;;;;;;;3.43;1.40;;;;;;;5.03;55.20;98600.22;10331856;28;20668;-75
2021/04/27 05:32:09;;;;;;;2.23;2.13;;;;;;;5.40;53.94;98595.53;10315335;28;20173;-75
2021/04/27 05:37:28;;;;;;;3.20;0.70;;;;;;;5.78;52.63;98599.38;10311899;28;20704;-76
2021/04/27 05:42:46;;;;;;;1.00;0.70;;;;;;;6.01;51.85;98589.00;10320207;28;20624;-76
2021/04/27 05:48:06;;;;;;;1.00;0.60;;;;;;;6.26;50.59;98589.91;10338433;28;20672;-76
2021/04/27 05:53:25;;;;;;;1.30;0.90;;;;;;;6.43;50.36;98589.22;10317043;28;20247;-76
2021/04/27 05:58:44;;;;;;;1.87;0.90;;;;;;;6.73;50.58;98595.97;10337493;28;20181;-76
2021/04/27 06:04:04;;;;;;;1.00;0.87;;;;;;;7.02;48.52;98586.69;10322278;28;20181;-76
2021/04/27 06:09:23;;;;;;;1.77;1.07;;;;;;;7.14;47.55;98584.34;10316056;28;20236;-75
2021/04/27 06:14:42;;;;;;;0.90;0.63;;;;;;;7.56;44.50;98583.59;10336915;28;20683;-77
2021/04/27 06:20:06;;;;;;;1.17;0.80;;;;;;;7.85;44.43;98583.19;10330087;28;20219;-77
2021/04/27 06:25:25;;;;;;;1.23;1.13;;;;;;;8.03;43.54;98570.25;10337418;28;20621;-77
2021/04/27 06:30:46;;;;;;;1.10;0.83;;;;;;;8.20;42.50;98569.47;10315156;28;20213;-77
2021/04/27 06:36:05;;;;;;;1.00;0.73;;;;;;;8.81;41.87;98561.38;10333686;28;20181;-76
2021/04/27 06:41:24;;;;;;;1.37;1.27;;;;;;;9.19;41.38;98558.41;10337060;28;20173;-78
2021/04/27 06:46:43;;;;;;;1.17;1.03;;;;;;;9.46;40.57;98555.84;10329616;28;20261;-76
2021/04/27 06:52:04;;;;;;;1.67;1.30;;;;;;;9.52;40.44;98558.53;10336344;28;20173;-77
2021/04/27 06:57:23;;;;;;;2.27;1.80;;;;;;;10.16;40.22;98550.53;10321535;28;20185;-77
2021/04/27 07:02:43;;;;;;;1.87;1.27;;;;;;;10.53;37.92;98548.53;10334887;28;20185;-78
2021/04/27 07:08:03;;;;;;;4.60;1.97;;;;;;;11.05;37.18;98539.56;10318997;28;20209;-76
2021/04/27 07:13:23;;;;;;;3.30;1.37;;;;;;;11.41;35.53;98540.56;10326591;28;20169;-76
2021/04/27 07:18:42;;;;;;;2.20;1.57;;;;;;;11.44;35.53;98539.75;10316240;28;20165;-77
2021/04/27 07:24:03;;;;;;;1.83;1.73;;;;;;;11.54;35.76;98527.81;10334846;28;20276;-76
2021/04/27 07:29:22;;;;;;;2.70;2.50;;;;;;;11.99;35.53;98525.03;10333482;28;20288;-78
2021/04/27 07:34:42;;;;;;;1.83;1.67;;;;;;;12.01;34.91;98524.59;10334784;28;20632;-77
2021/04/27 07:40:03;;;;;;;1.93;1.73;;;;;;;12.17;35.94;98522.72;10318231;28;20173;-77
2021/04/27 07:45:24;;;;;;;6.33;2.07;;;;;;;12.67;36.63;98534.31;10343310;28;20228;-78
2021/04/27 07:50:43;;;;;;;2.60;2.20;;;;;;;13.17;33.51;98518.25;10359584;28;20197;-78
2021/04/27 07:56:03;;;;;;;1.30;1.20;;;;;;;14.12;32.90;98523.78;10358331;28;20188;-77
2021/04/27 08:01:22;;;;;;;2.07;1.50;;;;;;;14.41;32.45;98521.78;10364954;28;20193;-77
2021/04/27 08:06:42;;;;;;;3.00;1.63;;;;;;;14.41;31.58;98514.25;10374479;28;20212;-76
2021/04/27 08:12:01;;;;;;;3.90;2.57;;;;;;;14.59;31.99;98519.28;10373047;28;20180;-76
2021/04/27 08:17:22;;;;;;;2.33;2.13;;;;;;;14.58;30.57;98512.97;10373027;28;20271;-75
2021/04/27 08:22:43;;;;;;;2.60;1.90;;;;;;;15.64;30.11;98503.75;10374013;28;20176;-78
2021/04/27 08:28:02;;;;;;;2.27;2.07;;;;;;;15.66;29.48;98509.63;10372961;28;20212;-78
2021/04/27 08:33:22;;;;;;;3.27;2.43;;;;;;;15.73;29.47;98503.03;10373764;28;20622;-76
2021/04/27 08:38:41;;;;;;;2.20;1.60;;;;;;;15.70;29.42;98496.41;10373869;28;20255;-78
2021/04/27 08:44:02;;;;;;;3.00;2.70;;;;;;;16.80;29.73;98498.41;10371287;28;20205;-78
2021/04/27 08:49:21;;;;;;;2.60;1.90;;;;;;;17.35;27.44;98501.00;10373110;28;20219;-77
2021/04/27 08:54:41;;;;;;;4.43;2.07;;;;;;;17.42;28.18;98489.59;10371817;28;20176;-77
2021/04/27 09:00:01;;;;;;;2.70;2.10;;;;;;;17.52;28.32;98479.28;10371526;28;20181;-77
2021/04/27 09:05:25;;;;;;;3.57;3.27;;;;;;;17.77;26.89;98483.34;10369940;28;20263;-77
2021/04/27 09:10:45;;;;;;;4.60;2.60;;;;;;;18.12;27.32;98475.50;10357617;28;20239;-78
2021/04/27 09:16:05;;;;;;;2.63;2.23;;;;;;;18.94;26.46;98472.19;10379781;28;20192;-78
2021/04/27 09:21:34;;;;;;;2.20;1.97;;;;;;;19.03;25.96;98461.75;10365897;28;20184;-80
2021/04/27 09:26:53;;;;;;;4.40;2.60;;;;;;;19.11;25.55;98454.63;10380271;28;20208;-81
2021/04/27 09:32:29;;;;;;;2.87;1.87;;;;;;;19.55;25.37;98450.84;10378930;28;20564;-79
2021/04/27 09:38:08;;;;;;;2.37;1.90;;;;;;;19.78;25.20;98443.72;10379923;28;20181;-80
2021/04/27 09:43:39;;;;;;;6.97;3.40;;;;;;;20.13;23.34;98443.47;10378565;28;20213;-79
2021/04/27 09:48:58;;;;;;;2.73;2.43;;;;;;;20.36;25.57;98436.28;10377863;28;20228;-81
2021/04/27 09:54:17;;;;;;;4.30;3.10;;;;;;;20.71;25.28;98440.75;10379452;28;20644;-79
2021/04/27 09:59:42;;;;;;;3.53;2.60;;;;;;;20.60;25.06;98442.56;10378022;28;20172;-80
2021/04/27 10:05:01;;;;;;;4.77;2.93;;;;;;;21.22;23.43;98429.94;10377943;28;20799;-81
2021/04/27 10:10:21;;;;;;;4.57;2.87;;;;;;;21.36;23.20;98429.91;10377415;28;20221;-79
2021/04/27 10:15:40;;;;;;;4.47;2.90;;;;;;;21.70;24.33;98406.72;10377311;28;20208;-80
2021/04/27 10:20:59;;;;;;;3.63;2.67;;;;;;;21.38;22.31;98412.63;10378576;28;20621;-79
2021/04/27 10:26:24;;;;;;;4.60;3.30;;;;;;;21.95;22.97;98409.59;10377424;28;20560;-77
2021/04/27 10:31:43;;;;;;;3.10;2.73;;;;;;;22.39;24.69;98392.53;10376845;28;20181;-78
2021/04/27 10:37:05;;;;;;;6.07;3.70;;;;;;;23.07;22.60;98394.94;10377995;28;20164;-78
2021/04/27 10:42:30;;;;;;;8.67;3.30;;;;;;;23.38;22.44;98367.59;10377580;28;20205;-79
2021/04/27 10:47:49;;;;;;;6.60;2.77;;;;;;;22.88;23.14;98370.53;10375175;28;20628;-78
2021/04/27 10:53:31;;;;;;;4.57;3.20;;;;;;;21.15;22.39;98374.38;10376224;28;20181;-78
2021/04/27 10:58:55;;;;;;;5.23;3.90;;;;;;;21.70;23.77;98361.91;10375743;28;20188;-79
2021/04/27 11:04:28;;;;;;;4.07;3.20;;;;;;;22.44;22.57;98361.75;10375793;28;20255;-79
2021/04/27 11:10:03;;;;;;;6.43;3.97;;;;;;;22.55;21.66;98356.25;10375859;28;20205;-78
2021/04/27 11:15:24;;;;;;;3.60;3.17;;;;;;;22.50;22.24;98342.94;10375067;28;20180;-78
2021/04/27 11:21:11;;;;;;;4.90;3.13;;;;;;;24.15;22.17;98342.63;10376128;28;20176;-79
2021/04/27 11:26:34;;;;;;;3.40;3.10;;;;;;;24.65;19.98;98335.06;10375707;28;20558;-78
2021/04/27 11:31:57;;;;;;;3.30;2.83;;;;;;;24.37;20.22;98325.81;10374491;28;20176;-78
2021/04/27 11:37:23;;;;;;;3.87;3.17;;;;;;;23.26;20.49;98328.75;10374581;28;20518;-80
2021/04/27 11:42:42;;;;;;;5.47;2.87;;;;;;;22.05;22.73;98314.97;10375321;28;20209;-79
2021/04/27 11:48:01;;;;;;;3.43;2.90;;;;;;;23.74;21.32;98313.44;10358874;28;20687;-79
2021/04/27 11:53:21;;;;;;;5.40;4.13;;;;;;;24.28;20.92;98300.75;10374906;28;20177;-79
2021/04/27 11:58:42;;;;;;;4.00;3.43;;;;;;;24.24;21.54;98295.41;10373115;28;20275;-78
2021/04/27 12:04:03;;;;;;;4.17;3.77;;;;;;;25.33;20.76;98291.75;10374596;28;20189;-78
2021/04/27 12:09:22;;;;;;;3.53;3.10;;;;;;;25.44;20.40;98283.28;10373993;28;20239;-78
2021/04/27 12:14:51;;;;;;;4.63;3.13;;;;;;;24.45;20.06;98282.66;10358367;28;20184;-78
2021/04/27 12:20:13;;;;;;;3.70;3.43;;;;;;;24.98;20.29;98273.91;10374340;28;20533;-78
2021/04/27 12:25:33;;;;;;;5.57;3.50;;;;;;;24.12;20.09;98264.97;10374053;28;20754;-77
2021/04/27 12:30:52;;;;;;;5.30;3.90;;;;;;;24.67;21.85;98265.00;10372592;28;20655;-78
2021/04/27 12:36:11;;;;;;;5.33;3.33;;;;;;;24.08;21.08;98247.59;10373860;28;20259;-79
2021/04/27 12:41:35;;;;;;;6.37;3.67;;;;;;;24.70;21.91;98247.09;10373386;28;20204;-78
2021/04/27 12:46:57;;;;;;;5.27;3.50;;;;;;;25.88;19.09;98235.16;10373454;28;20588;-75
2021/04/27 12:52:16;;;;;;;2.80;2.53;;;;;;;25.24;20.00;98224.47;10381633;28;20219;-73
2021/04/27 12:57:35;;;;;;;5.53;4.00;;;;;;;25.02;20.84;98235.00;10381575;28;20173;-75
2021/04/27 13:02:54;;;;;;;2.60;2.23;;;;;;;25.86;19.37;98215.97;10380059;28;20193;-79
2021/04/27 13:08:14;;;;;;;4.50;3.70;;;;;;;26.85;18.08;98203.84;10380806;28;20216;-78
2021/04/27 13:13:34;;;;;;;3.03;2.73;;;;;;;26.30;17.98;98198.69;10364630;28;20181;-76
2021/04/27 13:19:01;;;;;;;7.70;3.40;;;;;;;25.64;19.49;98192.75;10366114;28;20176;-76
2021/04/27 13:24:20;;;;;;;13.03;2.40;;;;;;;25.30;19.62;98185.78;10365804;28;20529;-77
2021/04/27 13:29:42;;;;;;;6.07;3.50;;;;;;;25.41;19.29;98194.19;10377653;28;20623;-75
2021/04/27 13:35:15;;;;;;;3.33;3.00;;;;;;;24.68;18.95;98171.66;10380390;28;20173;-77
2021/04/27 13:40:36;;;;;;;3.00;2.80;;;;;;;23.92;20.54;98171.72;10380067;28;20204;-77
2021/04/27 13:45:57;;;;;;;4.73;3.50;;;;;;;23.12;19.82;98166.16;10378396;28;20303;-75
2021/04/27 13:51:16;;;;;;;4.03;2.70;;;;;;;22.53;22.17;98154.91;10378677;28;20178;-76
2021/04/27 13:56:35;;;;;;;3.50;2.73;;;;;;;24.39;19.79;98146.91;10379351;28;20255;-76
2021/04/27 14:01:54;;;;;;;3.33;2.93;;;;;;;25.81;18.98;98139.91;10376092;28;20526;-77
2021/04/27 14:07:14;;;;;;;3.00;2.70;;;;;;;25.14;18.87;98135.19;10377771;28;20258;-76
2021/04/27 14:12:34;;;;;;;3.63;3.30;;;;;;;26.21;20.03;98127.78;10378959;28;20528;-75
2021/04/27 14:17:53;;;;;;;8.67;2.30;;;;;;;26.41;18.23;98125.31;10376528;28;20177;-77
2021/04/27 14:23:13;;;;;;;3.53;2.70;;;;;;;25.43;19.16;98132.47;10363820;28;20176;-77
2021/04/27 14:28:32;;;;;;;2.90;2.70;;;;;;;25.54;18.94;98121.13;10376143;28;20287;-77
2021/04/27 14:33:51;;;;;;;4.23;2.90;;;;;;;26.31;18.80;98117.69;10363108;28;20697;-77
2021/04/27 14:39:12;;;;;;;2.97;2.60;;;;;;;25.38;18.73;98105.09;10377812;28;20207;-77
2021/04/27 14:44:33;;;;;;;3.50;2.83;;;;;;;24.43;19.64;98115.72;10361080;28;20232;-77
2021/04/27 14:49:52;;;;;;;2.63;2.43;;;;;;;25.11;19.04;98096.81;10376750;28;20212;-76
2021/04/27 14:55:14;;;;;;;8.60;3.03;;;;;;;25.70;19.41;98085.66;10362283;28;20635;-77
2021/04/27 15:00:32;;;;;;;7.80;2.53;;;;;;;25.97;18.33;98085.47;10360966;28;20264;-77
2021/04/27 15:05:51;;;;;;;3.40;2.50;;;;;;;25.57;18.81;98080.66;10376641;28;20192;-78
2021/04/27 15:11:10;;;;;;;3.90;2.50;;;;;;;25.66;18.31;98069.06;10376518;28;20222;-79
2021/04/27 15:16:29;;;;;;;2.97;2.77;;;;;;;25.12;18.80;98058.94;10375144;28;20185;-77
2021/04/27 15:21:48;;;;;;;2.77;2.57;;;;;;;24.95;18.93;98060.31;10376102;28;20537;-79
2021/04/27 15:27:07;;;;;;;4.13;3.57;;;;;;;24.94;19.31;98059.53;10360899;28;20598;-76
2021/04/27 15:32:27;;;;;;;4.07;3.30;;;;;;;24.56;19.53;98054.06;10374412;28;20257;-77
2021/04/27 15:37:48;;;;;;;4.97;3.10;;;;;;;24.70;19.60;98053.75;10375618;28;20219;-78
2021/04/27 15:43:08;;;;;;;6.63;3.40;;;;;;;24.96;19.74;98040.06;10359264;28;20243;-76
2021/04/27 15:48:28;;;;;;;2.83;2.63;;;;;;;24.67;20.10;98039.97;10374579;28;20229;-76
2021/04/27 15:53:47;;;;;;;3.63;2.73;;;;;;;24.59;19.83;98036.19;10359935;28;20176;-76
2021/04/27 15:59:06;;;;;;;6.00;3.60;;;;;;;24.55;19.45;98035.69;10372719;28;20185;-78
2021/04/27 16:04:25;;;;;;;3.53;2.47;;;;;;;24.70;19.78;98034.06;10373509;28;20623;-78
2021/04/27 16:09:44;;;;;;;5.00;4.50;;;;;;;24.12;19.98;98023.28;10373771;28;20231;-78
2021/04/27 16:15:04;;;;;;;2.90;2.60;;;;;;;24.00;20.29;98024.56;10373090;28;20216;-78
2021/04/27 16:20:23;;;;;;;3.67;2.57;;;;;;;23.61;21.10;98020.28;10374284;28;20181;-78
2021/04/27 16:25:42;;;;;;;3.03;2.83;;;;;;;23.59;20.67;98020.78;10374007;28;20615;-77
2021/04/27 16:31:01;;;;;;;3.23;2.87;;;;;;;23.36;20.90;98019.25;10357803;28;20189;-77
2021/04/27 16:36:20;;;;;;;3.77;3.07;;;;;;;22.01;21.83;98015.50;10373968;28;20181;-76
2021/04/27 16:41:39;;;;;;;3.17;2.87;;;;;;;21.19;23.08;98016.88;10373618;28;20200;-77
2021/04/27 16:46:58;;;;;;;3.23;2.93;;;;;;;20.59;23.55;98014.22;10357122;28;20228;-76
2021/04/27 16:52:17;;;;;;;4.37;2.83;;;;;;;20.08;24.10;98013.31;10373499;28;20173;-76
2021/04/27 16:57:36;;;;;;;3.57;2.90;;;;;;;19.93;24.57;98014.63;10373509;28;20176;-79
2021/04/27 17:02:56;;;;;;;3.43;3.13;;;;;;;19.39;24.63;98023.69;10357184;28;20617;-78
2021/04/27 17:08:15;;;;;;;5.23;4.00;;;;;;;19.05;25.13;98013.22;10372843;28;20612;-76
2021/04/27 17:13:34;;;;;;;3.53;3.23;;;;;;;18.97;25.13;98017.66;10372039;28;20484;-77
2021/04/27 17:18:53;;;;;;;3.40;3.10;;;;;;;18.90;25.36;98014.47;10372071;28;20177;-78
2021/04/27 17:24:12;;;;;;;2.97;2.67;;;;;;;18.79;25.84;98022.63;10358199;28;20173;-77
2021/04/27 17:29:31;;;;;;;5.00;3.60;;;;;;;19.70;25.27;98018.38;10371086;28;20240;-78
2021/04/27 17:34:50;;;;;;;3.53;3.10;;;;;;;20.98;23.66;98018.22;10374582;28;20215;-76
2021/04/27 17:40:11;;;;;;;3.60;3.00;;;;;;;21.14;23.37;98028.81;10379818;28;20201;-78
2021/04/27 17:45:30;;;;;;;3.30;2.60;;;;;;;21.21;23.21;98015.13;10378261;28;20228;-77
2021/04/27 17:50:49;;;;;;;3.00;2.73;;;;;;;19.87;24.64;98016.59;10379027;28;20655;-77
2021/04/27 17:56:08;;;;;;;2.87;2.67;;;;;;;18.28;26.54;98026.94;10379709;28;20184;-76
2021/04/27 18:01:28;;;;;;;12.93;5.37;;;;;;;17.34;27.50;98029.59;10378289;28;20181;-77
2021/04/27 18:06:48;;;;;;;5.87;4.30;;;;;;;16.89;28.20;98021.34;10379062;28;20204;-76
2021/04/27 18:12:08;;;;;;;4.10;2.70;;;;;;;16.51;29.20;98025.13;10379127;28;20644;-77
2021/04/27 18:17:27;;;;;;;4.27;3.87;;;;;;;16.31;29.64;98024.84;10377347;28;20267;-75
2021/04/27 18:22:46;;;;;;;3.80;3.00;;;;;;;16.11;30.52;98032.78;10378639;28;20172;-77
2021/04/27 18:28:06;;;;;;;5.47;3.97;;;;;;;15.86;31.15;98040.63;10377533;28;20295;-76
2021/04/27 18:33:25;;;;;;;3.17;2.90;;;;;;;15.63;31.73;98036.38;10378017;28;20244;-76
2021/04/27 18:38:44;;;;;;;8.93;4.30;;;;;;;15.42;31.95;98033.69;10376711;28;20583;-76
2021/04/27 18:44:03;;;;;;;9.03;4.40;;;;;;;15.16;33.00;98037.84;10361111;28;20185;-76
2021/04/27 18:49:22;;;;;;;6.20;3.30;;;;;;;14.74;33.79;98033.16;10362196;28;20663;-78
2021/04/27 18:54:41;;;;;;;20.17;5.00;;;;;;;14.51;35.43;98031.59;10376271;28;20247;-76
2021/04/27 19:00:00;;;;;;;10.40;5.60;;;;;;;14.11;36.05;98051.22;10374746;28;20173;-77
2021/04/27 19:05:20;;;;;;;5.87;4.10;;;;;;;13.79;36.23;98057.03;10376564;28;20172;-77
2021/04/27 19:10:42;;;;;;;10.70;4.10;;;;;;;13.58;36.20;98061.25;10375982;28;20209;-76
2021/04/27 19:16:01;;;;;;;5.17;3.40;;;;;;;13.36;36.47;98064.34;10375019;28;20181;-76
2021/04/27 19:21:21;;;;;;;5.13;2.60;;;;;;;13.11;37.29;98070.66;10375295;28;20177;-75
2021/04/27 19:26:40;;;;;;;4.07;2.80;;;;;;;12.87;37.83;98071.34;10375931;28;20200;-76
2021/04/27 19:31:59;;;;;;;3.37;2.80;;;;;;;12.64;38.59;98066.09;10374687;28;20181;-76
2021/04/27 19:37:18;;;;;;;5.60;3.20;;;;;;;12.53;39.23;98082.16;10360831;28;20187;-77
2021/04/27 19:42:37;;;;;;;4.57;2.17;;;;;;;12.25;40.12;98082.13;10360711;28;20552;-77
2021/04/27 19:48:00;;;;;;;12.63;2.77;;;;;;;12.06;40.46;98077.53;10372446;28;20220;-77
2021/04/27 19:53:20;;;;;;;2.80;2.57;;;;;;;11.86;40.85;98073.34;10374414;28;20291;-76
2021/04/27 19:58:40;;;;;;;2.60;2.10;;;;;;;11.73;41.24;98073.25;10372898;28;20176;-77
2021/04/27 20:03:59;;;;;;;2.73;2.53;;;;;;;11.58;41.64;98074.81;10359907;28;20241;-77
2021/04/27 20:09:18;;;;;;;1.67;1.57;;;;;;;11.37;42.12;98072.50;10374361;28;20213;-76
2021/04/27 20:14:41;;;;;;;2.23;1.93;;;;;;;11.16;43.04;98072.19;10373313;28;20180;-76
2021/04/27 20:20:00;;;;;;;3.53;2.70;;;;;;;11.02;43.10;98072.53;10374424;28;20658;-76
2021/04/27 20:25:20;;;;;;;3.23;2.80;;;;;;;10.82;43.94;98080.03;10374251;28;20267;-77
2021/04/27 20:30:39;;;;;;;23.27;11.53;;;;;;;10.64;44.57;98074.13;10372326;28;20666;-76
2021/04/27 20:35:58;;;;;;;9.10;5.13;;;;;;;10.52;44.40;98080.25;10374035;28;20216;-75
2021/04/27 20:41:18;;;;;;;4.63;3.53;;;;;;;10.37;45.32;98078.22;10373577;28;20605;-76
2021/04/27 20:46:37;;;;;;;7.23;3.70;;;;;;;10.24;46.04;98080.00;10372062;28;20224;-76
2021/04/27 20:51:56;;;;;;;3.30;3.00;;;;;;;10.11;46.14;98086.53;10358747;28;20275;-76
2021/04/27 20:57:15;;;;;;;4.00;2.70;;;;;;;9.97;47.21;98089.50;10373691;28;20185;-75
2021/04/27 21:02:34;;;;;;;1.80;1.70;;;;;;;9.78;46.92;98092.97;10371265;28;20188;-75
2021/04/27 21:07:53;;;;;;;3.20;2.60;;;;;;;9.70;47.60;98091.53;10359526;28;20212;-77
2021/04/27 21:13:12;;;;;;;4.20;2.50;;;;;;;9.57;47.95;98093.31;10379028;28;20559;-77
2021/04/27 21:18:31;;;;;;;2.73;2.30;;;;;;;9.42;48.84;98091.97;10381110;28;20545;-77
2021/04/27 21:23:50;;;;;;;3.63;2.40;;;;;;;9.30;49.84;98092.53;10365972;28;20172;-77
2021/04/27 21:29:09;;;;;;;3.87;2.40;;;;;;;9.13;51.60;98093.56;10364009;28;20281;-77
2021/04/27 21:34:28;;;;;;;2.17;1.80;;;;;;;8.99;52.17;98090.25;10379687;28;20172;-75
2021/04/27 21:39:47;;;;;;;3.73;2.67;;;;;;;8.84;51.39;98100.63;10380209;28;20552;-76
2021/04/27 21:45:15;;;;;;;2.90;2.63;;;;;;;8.73;53.55;98101.97;10377569;28;20217;-75
2021/04/27 21:50:34;;;;;;;5.10;3.30;;;;;;;8.53;55.54;98090.03;10364301;28;20212;-76
2021/04/27 21:55:53;;;;;;;5.57;1.90;;;;;;;8.33;57.80;98097.34;10379645;28;20185;-74
2021/04/27 22:01:12;;;;;;;3.70;2.87;;;;;;;8.15;57.41;98101.44;10378101;28;20188;-75
2021/04/27 22:06:32;;;;;;;3.13;2.83;;;;;;;8.00;57.77;98106.25;10364256;28;20181;-75
2021/04/27 22:11:50;;;;;;;4.10;2.47;;;;;;;7.91;57.99;98092.25;10379060;28;20593;-75
2021/04/27 22:17:09;;;;;;;2.87;2.67;;;;;;;7.83;58.05;98095.47;10377540;28;20537;-74
2021/04/27 22:22:28;;;;;;;5.20;3.40;;;;;;;7.72;57.74;98099.44;10377898;28;20172;-75
2021/04/27 22:27:48;;;;;;;3.93;3.60;;;;;;;7.61;58.05;98093.31;10378241;28;20212;-76
2021/04/27 22:33:07;;;;;;;2.93;2.10;;;;;;;7.50;58.24;98098.88;10362797;28;20220;-75
2021/04/27 22:38:27;;;;;;;2.40;1.40;;;;;;;7.42;57.94;98086.41;10377978;28;20560;-75
2021/04/27 22:43:46;;;;;;;2.60;2.27;;;;;;;7.35;58.02;98091.16;10361604;28;20544;-75
2021/04/27 22:49:05;;;;;;;2.07;1.87;;;;;;;7.26;58.65;98091.63;10376644;28;20229;-77
2021/04/27 22:54:24;;;;;;;2.10;2.00;;;;;;;7.19;58.16;98094.38;10377423;28;20256;-76
2021/04/27 22:59:43;;;;;;;3.50;2.37;;;;;;;7.14;58.61;98086.59;10376006;28;20208;-75
2021/04/27 23:05:04;;;;;;;3.53;1.47;;;;;;;7.08;59.25;98092.13;10362209;28;20181;-74
2021/04/27 23:10:23;;;;;;;2.03;1.80;;;;;;;6.99;59.70;98089.03;10361596;28;20245;-74
2021/04/27 23:15:42;;;;;;;5.97;1.80;;;;;;;6.92;59.55;98084.38;10375206;28;20219;-74
2021/04/27 23:21:01;;;;;;;2.17;1.97;;;;;;;6.84;59.66;98093.03;10376462;28;20172;-76
2021/04/27 23:26:21;;;;;;;4.80;2.20;;;;;;;6.78;59.34;98086.44;10376032;28;20192;-75
2021/04/27 23:31:39;;;;;;;1.93;1.50;;;;;;;6.68;59.80;98090.00;10359778;28;20177;-75
2021/04/27 23:36:58;;;;;;;2.17;1.67;;;;;;;6.58;60.13;98088.06;10374659;28;20192;-75
2021/04/27 23:42:18;;;;;;;4.10;2.20;;;;;;;6.50;60.89;98086.53;10375565;28;20184;-76
2021/04/27 23:47:38;;;;;;;4.77;2.40;;;;;;;6.40;61.39;98098.28;10358559;28;20623;-77
2021/04/27 23:52:58;;;;;;;2.07;1.87;;;;;;;6.30;61.81;98098.31;10375314;28;20252;-75
2021/04/27 23:58:17;;;;;;;2.30;2.07;;;;;;;6.19;62.93;98092.91;10373796;28;20169;-74
